createdAt,value
2023-05-19T00:02:06.005Z,1.75
2023-05-19T00:04:33.772Z,1.50
2023-05-19T00:07:01.936Z,1.50
2023-05-19T00:09:29.104Z,1.90
2023-05-19T00:11:57.947Z,1.65
2023-05-19T00:14:25.079Z,1.55
2023-05-19T00:16:52.298Z,1.55
2023-05-19T00:19:19.012Z,1.50
2023-05-19T00:21:45.759Z,1.60
2023-05-19T00:24:13.220Z,1.40
2023-05-19T00:26:40.002Z,1.60
2023-05-19T00:29:08.026Z,1.48
2023-05-19T00:31:34.771Z,1.42
2023-05-19T00:34:01.590Z,1.80
2023-05-19T00:36:28.242Z,1.50
2023-05-19T00:38:54.910Z,1.70
2023-05-19T00:41:21.577Z,1.83
2023-05-19T00:43:48.282Z,1.83
2023-05-19T00:46:16.309Z,1.70
2023-05-19T00:48:44.749Z,1.90
2023-05-19T00:51:14.649Z,1.50
2023-05-19T00:53:41.542Z,1.63
2023-05-19T00:56:08.322Z,1.73
2023-05-19T00:58:36.764Z,1.70
2023-05-19T01:01:04.339Z,1.73
2023-05-19T01:03:37.291Z,1.60
2023-05-19T01:06:07.896Z,1.52
2023-05-19T01:08:36.399Z,1.60
2023-05-19T01:11:03.486Z,1.30
2023-05-19T01:13:30.866Z,1.52
2023-05-19T01:16:01.621Z,1.70
2023-05-19T01:18:43.620Z,1.50
2023-05-19T01:21:44.294Z,1.88
2023-05-19T01:24:32.947Z,1.83
2023-05-19T01:27:15.375Z,1.60
2023-05-19T01:29:52.946Z,1.80
2023-05-19T01:32:23.743Z,1.90
2023-05-19T01:34:51.075Z,1.60
2023-05-19T01:37:19.571Z,1.70
2023-05-19T01:39:46.484Z,1.70
2023-05-19T01:42:14.426Z,1.95
2023-05-19T01:44:41.807Z,1.80
2023-05-19T01:47:10.859Z,1.77
2023-05-19T01:49:38.904Z,1.80
2023-05-19T01:52:06.183Z,1.73
2023-05-19T01:54:32.955Z,1.80
2023-05-19T01:57:07.321Z,1.85
2023-05-19T01:59:46.559Z,1.80
2023-05-19T02:02:26.263Z,1.80
2023-05-19T02:04:59.830Z,1.70
2023-05-19T02:07:35.373Z,1.98
2023-05-19T02:10:06.405Z,1.77
2023-05-19T02:12:35.111Z,1.40
2023-05-19T02:15:06.294Z,1.63
2023-05-19T02:17:36.428Z,1.75
2023-05-19T02:20:05.928Z,1.73
2023-05-19T02:22:34.749Z,1.50
2023-05-19T02:25:01.481Z,1.90
2023-05-19T02:27:28.115Z,1.60
2023-05-19T02:29:54.907Z,1.80
2023-05-19T02:32:21.861Z,1.70
2023-05-19T02:34:48.486Z,1.80
2023-05-19T02:37:16.787Z,1.52
2023-05-19T02:39:43.659Z,1.90
2023-05-19T02:42:10.728Z,1.73
2023-05-19T02:44:37.353Z,1.98
2023-05-19T02:47:04.335Z,1.58
2023-05-19T02:49:35.711Z,1.70
2023-05-19T02:52:03.120Z,1.70
2023-05-19T02:54:31.582Z,1.67
2023-05-19T02:56:58.683Z,1.58
2023-05-19T02:59:25.835Z,2.20
2023-05-19T03:01:55.879Z,1.48
2023-05-19T03:04:22.532Z,1.70
2023-05-19T03:06:50.176Z,1.77
2023-05-19T03:09:16.971Z,1.80
2023-05-19T03:11:45.055Z,2.20
2023-05-19T03:14:14.359Z,1.95
2023-05-19T03:16:42.190Z,1.60
2023-05-19T03:19:09.498Z,2.05
2023-05-19T03:21:36.675Z,1.70
2023-05-19T03:24:03.797Z,2.10
2023-05-19T03:26:30.548Z,1.45
2023-05-19T03:28:58.541Z,1.90
2023-05-19T03:31:26.782Z,1.80
2023-05-19T03:33:53.559Z,1.90
2023-05-19T03:36:20.335Z,1.90
2023-05-19T03:38:47.079Z,1.98
2023-05-19T03:41:13.834Z,1.80
2023-05-19T03:43:40.531Z,2.63
2023-05-19T03:46:08.557Z,1.95
2023-05-19T03:48:35.535Z,1.83
2023-05-19T03:51:02.176Z,1.80
2023-05-19T03:53:30.280Z,1.88
2023-05-19T03:55:57.014Z,1.75
2023-05-19T03:58:24.178Z,1.83
2023-05-19T04:00:51.051Z,2.08
2023-05-19T04:03:19.175Z,2.03
2023-05-19T04:05:46.018Z,2.10
2023-05-19T04:08:12.649Z,2.00
2023-05-19T04:10:39.354Z,1.90
2023-05-19T04:13:06.205Z,1.80
2023-05-19T04:15:32.944Z,1.92
2023-05-19T04:17:59.670Z,3.17
2023-05-19T04:20:27.828Z,2.95
2023-05-19T04:22:54.499Z,2.53
2023-05-19T04:25:21.165Z,2.60
2023-05-19T04:27:48.744Z,3.60
2023-05-19T04:30:22.144Z,3.92
2023-05-19T04:32:51.683Z,3.72
2023-05-19T04:35:19.413Z,3.80
2023-05-19T04:37:48.427Z,3.33
2023-05-19T04:40:15.786Z,2.28
2023-05-19T04:42:42.834Z,2.03
2023-05-19T04:45:12.264Z,2.17
2023-05-19T04:47:39.055Z,2.42
2023-05-19T04:50:07.382Z,3.92
2023-05-19T04:52:34.114Z,3.25
2023-05-19T04:55:02.219Z,2.03
2023-05-19T04:57:28.866Z,2.80
2023-05-19T05:00:00.139Z,2.15
2023-05-19T05:02:30.074Z,2.45
2023-05-19T05:04:56.773Z,2.38
2023-05-19T05:07:23.783Z,4.22
2023-05-19T05:09:50.425Z,2.10
2023-05-19T05:12:19.613Z,2.20
2023-05-19T05:14:46.892Z,5.07
2023-05-19T05:17:14.144Z,4.72
2023-05-19T05:19:41.339Z,5.32
2023-05-19T05:22:08.585Z,5.95
2023-05-19T05:24:35.949Z,5.07
2023-05-19T05:27:02.598Z,6.00
2023-05-19T05:29:30.945Z,5.93
2023-05-19T05:31:57.866Z,3.50
2023-05-19T05:34:24.866Z,5.25
2023-05-19T05:36:51.446Z,5.28
2023-05-19T05:39:18.086Z,4.65
2023-05-19T05:41:44.782Z,5.10
2023-05-19T05:44:11.484Z,6.47
2023-05-19T05:46:39.926Z,5.82
2023-05-19T05:49:07.043Z,5.60
2023-05-19T05:51:34.310Z,5.65
2023-05-19T05:54:02.702Z,3.65
2023-05-19T05:56:29.797Z,5.90
2023-05-19T05:58:56.779Z,5.38
2023-05-19T06:01:24.041Z,4.97
2023-05-19T06:03:52.141Z,5.35
2023-05-19T06:06:21.718Z,5.35
2023-05-19T06:08:48.387Z,6.28
2023-05-19T06:11:15.041Z,5.88
2023-05-19T06:13:41.754Z,6.00
2023-05-19T06:16:09.748Z,4.43
2023-05-19T06:18:36.794Z,5.75
2023-05-19T06:21:04.913Z,5.35
2023-05-19T06:23:31.641Z,5.28
2023-05-19T06:25:58.303Z,3.28
2023-05-19T06:28:25.009Z,3.42
2023-05-19T06:30:51.786Z,5.15
2023-05-19T06:33:18.459Z,3.38
2023-05-19T06:35:45.327Z,3.20
2023-05-19T06:38:13.350Z,5.13
2023-05-19T06:40:40.555Z,5.47
2023-05-19T06:43:07.246Z,6.03
2023-05-19T06:45:33.896Z,6.32
2023-05-19T06:48:00.799Z,6.93
2023-05-19T06:50:27.651Z,6.73
2023-05-19T06:52:54.600Z,4.22
2023-05-19T06:55:22.831Z,3.95
2023-05-19T06:57:49.468Z,5.65
2023-05-19T07:00:19.933Z,6.75
2023-05-19T07:02:48.833Z,3.72
2023-05-19T07:05:15.652Z,4.50
2023-05-19T07:07:43.320Z,6.47
2023-05-19T07:10:11.007Z,6.32
2023-05-19T07:12:39.026Z,6.18
2023-05-19T07:15:06.757Z,5.90
2023-05-19T07:17:33.463Z,6.17
2023-05-19T07:20:01.584Z,5.78
2023-05-19T07:22:28.274Z,4.63
2023-05-19T07:24:57.047Z,4.38
2023-05-19T07:27:23.757Z,3.40
2023-05-19T07:29:52.035Z,3.83
2023-05-19T07:32:18.905Z,5.65
2023-05-19T07:34:45.786Z,5.40
2023-05-19T07:37:12.508Z,4.63
2023-05-19T07:39:39.139Z,4.95
2023-05-19T07:42:06.039Z,3.67
2023-05-19T07:44:32.786Z,4.20
2023-05-19T07:47:02.106Z,4.95
2023-05-19T07:49:29.400Z,5.40
2023-05-19T07:51:56.568Z,5.72
2023-05-19T07:54:23.224Z,4.90
2023-05-19T07:56:49.966Z,3.90
2023-05-19T07:59:16.701Z,3.38
2023-05-19T08:01:43.557Z,5.25
2023-05-19T08:04:13.154Z,5.75
2023-05-19T08:06:40.215Z,3.97
2023-05-19T08:09:06.864Z,4.47
2023-05-19T08:11:33.608Z,5.53
2023-05-19T08:14:00.388Z,4.97
2023-05-19T08:16:27.079Z,5.33
2023-05-19T08:18:54.980Z,5.55
2023-05-19T08:21:23.116Z,5.72
2023-05-19T08:23:49.760Z,6.20
2023-05-19T08:26:16.493Z,5.17
2023-05-19T08:28:44.180Z,5.33
2023-05-19T08:31:11.008Z,5.43
2023-05-19T08:33:37.978Z,4.85
2023-05-19T08:36:05.481Z,5.13
2023-05-19T08:38:33.525Z,4.13
2023-05-19T08:41:00.424Z,4.63
2023-05-19T08:43:27.499Z,5.85
2023-05-19T08:45:55.505Z,3.00
2023-05-19T08:48:27.032Z,3.20
2023-05-19T08:51:01.921Z,3.30
2023-05-19T08:53:36.942Z,3.72
2023-05-19T08:56:10.857Z,4.90
2023-05-19T08:58:39.550Z,6.45
2023-05-19T09:01:07.847Z,3.10
2023-05-19T09:03:39.248Z,3.35
2023-05-19T09:06:07.381Z,2.83
2023-05-19T09:08:36.102Z,5.45
2023-05-19T09:11:02.823Z,5.07
2023-05-19T09:13:29.490Z,4.72
2023-05-19T09:15:57.403Z,5.45
2023-05-19T09:18:26.047Z,5.40
2023-05-19T09:21:00.379Z,4.25
2023-05-19T09:23:29.511Z,4.18
2023-05-19T09:25:57.656Z,3.70
2023-05-19T09:28:26.040Z,3.33
2023-05-19T09:31:02.653Z,5.82
2023-05-19T09:33:30.011Z,4.00
2023-05-19T09:35:57.203Z,3.13
2023-05-19T09:38:24.828Z,3.22
2023-05-19T09:40:58.410Z,5.45
2023-05-19T09:43:27.648Z,5.18
2023-05-19T09:45:55.716Z,4.85
2023-05-19T09:48:24.230Z,3.85
2023-05-19T09:50:53.082Z,5.55
2023-05-19T09:53:21.289Z,5.18
2023-05-19T09:55:48.535Z,4.00
2023-05-19T09:58:18.976Z,5.18
2023-05-19T10:00:47.008Z,4.68
2023-05-19T10:03:14.762Z,4.10
2023-05-19T10:05:42.675Z,5.30
2023-05-19T10:08:10.540Z,5.57
2023-05-19T10:10:38.186Z,5.68
2023-05-19T10:13:06.114Z,5.30
2023-05-19T10:15:40.751Z,4.28
2023-05-19T10:18:16.074Z,5.28
2023-05-19T10:20:43.646Z,4.13
2023-05-19T10:23:10.372Z,5.15
2023-05-19T10:25:38.476Z,3.97
2023-05-19T10:28:09.396Z,4.55
2023-05-19T10:30:40.985Z,4.40
2023-05-19T10:33:12.196Z,5.53
2023-05-19T10:36:08.286Z,5.10
2023-05-19T10:38:43.096Z,4.20
2023-05-19T10:41:13.943Z,5.13
2023-05-19T10:43:54.522Z,5.75
2023-05-19T10:46:28.416Z,4.70
2023-05-19T10:48:55.793Z,13.77
2023-05-19T10:51:28.731Z,6.45
2023-05-19T10:53:55.364Z,5.22
2023-05-19T10:56:30.281Z,4.93
2023-05-19T10:58:57.205Z,5.65
2023-05-19T11:01:31.802Z,4.88
2023-05-19T11:04:05.606Z,4.10
2023-05-19T11:06:33.953Z,4.13
2023-05-19T11:09:05.661Z,3.65
2023-05-19T11:11:45.356Z,4.60
2023-05-19T11:16:43.322Z,3.42
2023-05-19T11:19:19.949Z,4.45
2023-05-19T11:21:52.350Z,4.72
2023-05-19T11:24:39.915Z,4.40
2023-05-19T11:27:27.607Z,4.50
2023-05-19T11:29:55.715Z,3.78
2023-05-19T11:32:27.093Z,4.13
2023-05-19T11:34:55.743Z,4.30
2023-05-19T11:37:22.748Z,4.20
2023-05-19T11:39:50.764Z,4.03
2023-05-19T11:42:17.579Z,3.63
2023-05-19T11:44:47.567Z,4.03
2023-05-19T11:47:15.449Z,3.85
2023-05-19T11:49:45.835Z,3.50
2023-05-19T11:52:13.271Z,4.43
2023-05-19T11:54:41.880Z,3.30
2023-05-19T11:57:09.928Z,3.80
2023-05-19T11:59:40.594Z,3.95
2023-05-19T12:02:17.476Z,3.67
2023-05-19T12:04:46.062Z,3.35
2023-05-19T12:07:13.816Z,3.43
2023-05-19T12:09:40.548Z,3.28
2023-05-19T12:12:07.899Z,2.70
2023-05-19T12:14:35.862Z,3.10
2023-05-19T12:17:10.559Z,3.38
2023-05-19T12:19:37.634Z,4.03
2023-05-19T12:22:07.416Z,3.83
2023-05-19T12:24:34.944Z,4.22
2023-05-19T12:27:12.503Z,4.10
2023-05-19T12:29:39.842Z,3.60
2023-05-19T12:32:08.173Z,4.40
2023-05-19T12:34:36.319Z,3.30
2023-05-19T12:37:05.088Z,3.92
2023-05-19T12:39:32.483Z,3.78
2023-05-19T12:42:02.952Z,3.22
2023-05-19T12:44:31.377Z,3.50
2023-05-19T12:46:59.417Z,3.22
2023-05-19T12:49:26.147Z,3.50
2023-05-19T12:51:53.180Z,3.58
2023-05-19T12:54:21.958Z,3.45
2023-05-19T12:56:52.126Z,3.85
2023-05-19T12:59:34.840Z,3.53
2023-05-19T13:02:04.910Z,3.90
2023-05-19T13:04:31.956Z,3.58
2023-05-19T13:06:58.578Z,3.38
2023-05-19T13:09:30.430Z,3.33
2023-05-19T13:11:58.762Z,4.65
2023-05-19T13:14:25.486Z,3.97
2023-05-19T13:16:52.115Z,4.85
2023-05-19T13:21:52.904Z,5.05
2023-05-19T13:24:19.595Z,4.47
2023-05-19T13:26:48.210Z,5.40
2023-05-19T13:29:15.187Z,4.93
2023-05-19T13:31:41.945Z,4.75
2023-05-19T13:34:08.698Z,5.57
2023-05-19T13:36:36.564Z,5.72
2023-05-19T13:39:03.579Z,5.75
2023-05-19T13:41:30.305Z,4.95
2023-05-19T13:43:59.783Z,5.20
2023-05-19T13:46:36.517Z,5.13
2023-05-19T13:49:10.526Z,5.38
2023-05-19T13:51:37.653Z,5.10
2023-05-19T13:54:05.059Z,5.45
2023-05-19T13:56:31.909Z,5.75
2023-05-19T13:58:59.869Z,5.43
2023-05-19T14:01:26.566Z,5.75
2023-05-19T14:03:53.565Z,6.00
2023-05-19T14:06:20.433Z,5.63
2023-05-19T14:08:47.136Z,5.35
2023-05-19T14:11:18.071Z,5.43
2023-05-19T14:13:44.813Z,6.35
2023-05-19T14:16:12.816Z,6.28
2023-05-19T14:18:39.530Z,5.90
2023-05-19T14:21:06.234Z,5.60
2023-05-19T14:23:32.909Z,5.32
2023-05-19T14:25:59.691Z,4.80
2023-05-19T14:28:26.694Z,5.15
2023-05-19T14:30:53.542Z,6.22
2023-05-19T14:33:22.331Z,6.45
2023-05-19T14:35:49.049Z,5.97
2023-05-19T14:38:15.849Z,6.70
2023-05-19T14:40:43.013Z,5.82
2023-05-19T14:43:09.761Z,6.32
2023-05-19T14:45:36.547Z,6.13
2023-05-19T14:48:03.346Z,6.93
2023-05-19T14:50:31.662Z,6.90
2023-05-19T14:52:58.509Z,6.75
2023-05-19T14:55:25.425Z,7.97
2023-05-19T14:57:52.085Z,8.40
2023-05-19T15:00:19.256Z,7.72
2023-05-19T15:02:46.268Z,7.10
2023-05-19T15:05:13.003Z,6.80
2023-05-19T15:07:40.973Z,7.28
2023-05-19T15:10:08.517Z,7.50
2023-05-19T15:12:35.524Z,7.15
2023-05-19T15:15:02.339Z,7.30
2023-05-19T15:17:29.035Z,7.45
2023-05-19T15:19:55.809Z,7.53
2023-05-19T15:22:22.414Z,8.32
2023-05-19T15:24:50.620Z,8.63
2023-05-19T15:27:17.381Z,6.72
2023-05-19T15:29:44.746Z,8.35
2023-05-19T15:32:11.528Z,8.43
2023-05-19T15:34:38.214Z,7.90
2023-05-19T15:37:05.403Z,7.05
2023-05-19T15:39:33.923Z,9.02
2023-05-19T15:42:02.145Z,7.68
2023-05-19T15:44:29.420Z,7.47
2023-05-19T15:46:56.135Z,7.50
2023-05-19T15:49:23.720Z,8.90
2023-05-19T15:51:50.417Z,7.97
2023-05-19T15:54:17.026Z,7.75
2023-05-19T15:56:43.900Z,8.38
2023-05-19T15:59:11.840Z,8.48
2023-05-19T16:01:38.530Z,9.48
2023-05-19T16:04:05.375Z,9.52
2023-05-19T16:06:32.390Z,9.73
2023-05-19T16:08:59.165Z,10.05
2023-05-19T16:11:26.781Z,8.77
2023-05-19T16:13:53.690Z,9.15
2023-05-19T16:16:21.753Z,7.72
2023-05-19T16:18:48.588Z,8.23
2023-05-19T16:21:15.374Z,8.55
2023-05-19T16:23:42.191Z,9.15
2023-05-19T16:26:08.886Z,9.05
2023-05-19T16:28:35.574Z,8.38
2023-05-19T16:31:02.279Z,9.48
2023-05-19T16:33:30.516Z,8.63
2023-05-19T16:35:58.215Z,8.95
2023-05-19T16:38:24.951Z,9.20
2023-05-19T16:40:51.999Z,10.02
2023-05-19T16:43:18.692Z,8.20
2023-05-19T16:45:45.394Z,8.82
2023-05-19T16:48:12.222Z,8.75
2023-05-19T16:50:40.506Z,8.80
2023-05-19T16:53:07.235Z,9.07
2023-05-19T16:55:33.955Z,8.63
2023-05-19T16:58:00.605Z,9.70
2023-05-19T17:00:29.382Z,10.48
2023-05-19T17:02:56.290Z,9.38
2023-05-19T17:05:23.120Z,7.93
2023-05-19T17:07:51.271Z,7.78
2023-05-19T17:10:18.408Z,8.48
2023-05-19T17:12:45.109Z,8.63
2023-05-19T17:15:12.044Z,9.13
2023-05-19T17:17:38.747Z,9.50
2023-05-19T17:20:07.281Z,8.15
2023-05-19T17:22:33.919Z,8.27
2023-05-19T17:25:01.993Z,8.93
2023-05-19T17:27:28.716Z,7.93
2023-05-19T17:29:55.502Z,5.75
2023-05-19T17:32:25.780Z,5.93
2023-05-19T17:34:52.871Z,6.25
2023-05-19T17:37:23.392Z,7.50
2023-05-19T17:39:50.282Z,6.30
2023-05-19T17:42:18.379Z,6.07
2023-05-19T17:44:45.053Z,5.85
2023-05-19T17:47:11.774Z,5.53
2023-05-19T17:49:40.145Z,6.10
2023-05-19T17:52:07.919Z,5.65
2023-05-19T17:54:35.190Z,5.75
2023-05-19T17:57:03.533Z,5.30
2023-05-19T17:59:32.381Z,5.75
2023-05-19T18:01:59.613Z,5.55
2023-05-19T18:04:27.012Z,5.40
2023-05-19T18:06:55.727Z,5.80
2023-05-19T18:09:23.451Z,5.25
2023-05-19T18:11:50.067Z,5.85
2023-05-19T18:14:16.686Z,5.63
2023-05-19T18:16:44.810Z,5.93
2023-05-19T18:19:11.685Z,6.15
2023-05-19T18:21:38.335Z,5.07
2023-05-19T18:24:05.920Z,5.30
2023-05-19T18:26:33.552Z,5.38
2023-05-19T18:29:02.751Z,5.38
2023-05-19T18:31:29.733Z,5.85
2023-05-19T18:33:57.710Z,5.47
2023-05-19T18:36:24.398Z,5.88
2023-05-19T18:38:51.023Z,5.40
2023-05-19T18:41:17.680Z,5.30
2023-05-19T18:43:44.599Z,4.75
2023-05-19T18:46:11.435Z,5.47
2023-05-19T18:48:38.118Z,5.45
2023-05-19T18:51:07.237Z,5.13
2023-05-19T18:53:34.696Z,5.40
2023-05-19T18:56:01.407Z,5.18
2023-05-19T18:58:28.042Z,5.25
2023-05-19T19:00:55.229Z,5.03
2023-05-19T19:03:21.863Z,5.00
2023-05-19T19:05:54.265Z,5.47
2023-05-19T19:08:25.214Z,5.28
2023-05-19T19:10:52.133Z,5.47
2023-05-19T19:13:19.046Z,5.55
2023-05-19T19:15:45.872Z,5.35
2023-05-19T19:18:12.761Z,5.30
2023-05-19T19:20:39.409Z,4.95
2023-05-19T19:23:06.760Z,5.82
2023-05-19T19:25:35.079Z,5.90
2023-05-19T19:28:02.300Z,5.72
2023-05-19T19:30:29.420Z,4.65
2023-05-19T19:32:56.994Z,4.70
2023-05-19T19:35:26.536Z,4.50
2023-05-19T19:37:53.300Z,5.03
2023-05-19T19:40:19.965Z,4.60
2023-05-19T19:42:48.208Z,4.90
2023-05-19T19:45:15.853Z,4.82
2023-05-19T19:47:42.993Z,6.00
2023-05-19T19:50:11.510Z,6.95
2023-05-19T19:52:38.372Z,6.05
2023-05-19T19:55:06.143Z,4.68
2023-05-19T19:57:34.260Z,4.72
2023-05-19T20:00:08.488Z,5.13
2023-05-19T20:02:41.030Z,5.78
2023-05-19T20:05:12.782Z,5.15
2023-05-19T20:07:39.515Z,4.85
2023-05-19T20:10:06.900Z,4.60
2023-05-19T20:12:33.642Z,4.60
2023-05-19T20:15:00.421Z,4.90
2023-05-19T20:17:28.772Z,4.60
2023-05-19T20:19:56.298Z,4.85
2023-05-19T20:22:23.032Z,5.32
2023-05-19T20:24:49.722Z,6.25
2023-05-19T20:27:16.373Z,5.30
2023-05-19T20:29:43.129Z,4.80
2023-05-19T20:32:09.817Z,4.32
2023-05-19T20:34:38.091Z,5.40
2023-05-19T20:37:05.191Z,4.80
2023-05-19T20:39:31.883Z,5.13
2023-05-19T20:41:58.597Z,4.78
2023-05-19T20:44:25.311Z,4.03
2023-05-19T20:46:51.968Z,4.53
2023-05-19T20:49:19.209Z,4.47
2023-05-19T20:51:47.355Z,4.72
2023-05-19T20:54:14.305Z,4.40
2023-05-19T20:56:41.066Z,4.45
2023-05-19T20:59:07.837Z,4.40
2023-05-19T21:01:34.566Z,4.93
2023-05-19T21:04:01.370Z,4.40
2023-05-19T21:06:28.053Z,5.82
2023-05-19T21:08:56.232Z,5.78
2023-05-19T21:11:23.029Z,5.68
2023-05-19T21:13:51.239Z,4.90
2023-05-19T21:16:17.895Z,4.93
2023-05-19T21:18:44.711Z,4.80
2023-05-19T21:21:11.844Z,5.13
2023-05-19T21:23:38.715Z,4.72
2023-05-19T21:26:07.317Z,4.47
2023-05-19T21:28:34.062Z,4.60
2023-05-19T21:31:00.930Z,4.22
2023-05-19T21:33:27.653Z,4.75
2023-05-19T21:35:54.368Z,5.60
2023-05-19T21:38:23.894Z,5.60
2023-05-19T21:40:51.204Z,4.55
2023-05-19T21:43:19.668Z,3.90
2023-05-19T21:45:46.350Z,4.28
2023-05-19T21:48:13.139Z,4.65
2023-05-19T21:50:39.893Z,4.55
2023-05-19T21:53:06.598Z,4.18
2023-05-19T21:55:40.754Z,4.43
2023-05-19T21:58:07.445Z,4.30
2023-05-19T22:00:36.814Z,4.28
2023-05-19T22:05:31.969Z,5.30
2023-05-19T22:07:58.669Z,5.50
2023-05-19T22:10:25.447Z,5.72
2023-05-19T22:12:52.133Z,5.13
2023-05-19T22:15:18.956Z,4.72
2023-05-19T22:17:47.097Z,4.68
2023-05-19T22:20:13.861Z,4.47
2023-05-19T22:22:40.767Z,5.47
2023-05-19T22:25:08.221Z,5.10
2023-05-19T22:27:34.846Z,6.28
2023-05-19T22:30:01.514Z,5.70
2023-05-19T22:32:28.594Z,5.70
2023-05-19T22:34:56.626Z,6.53
2023-05-19T22:37:24.198Z,4.40
2023-05-19T22:39:51.505Z,4.53
2023-05-19T22:42:18.562Z,4.13
2023-05-19T22:44:45.847Z,5.20
2023-05-19T22:47:13.962Z,4.88
2023-05-19T22:49:40.832Z,5.35
2023-05-19T22:52:10.758Z,4.65
2023-05-19T22:54:37.842Z,4.30
2023-05-19T22:57:05.159Z,4.35
2023-05-19T22:59:31.948Z,4.60
2023-05-19T23:01:58.678Z,4.70
2023-05-19T23:04:25.776Z,4.22
2023-05-19T23:06:52.634Z,4.40
2023-05-19T23:09:21.785Z,4.40
2023-05-19T23:11:48.585Z,4.28
2023-05-19T23:14:15.325Z,4.32
2023-05-19T23:16:42.024Z,4.18
2023-05-19T23:19:08.709Z,4.57
2023-05-19T23:21:36.040Z,4.20
2023-05-19T23:24:02.763Z,4.35
2023-05-19T23:26:30.687Z,4.70
2023-05-19T23:28:57.352Z,4.90
2023-05-19T23:31:24.191Z,4.07
2023-05-19T23:33:50.908Z,4.35
2023-05-19T23:36:17.840Z,4.07
2023-05-19T23:38:44.465Z,4.68
2023-05-19T23:41:11.156Z,4.53
2023-05-19T23:43:39.198Z,5.07
2023-05-19T23:46:06.037Z,4.28
2023-05-19T23:48:33.628Z,3.92
2023-05-19T23:51:00.363Z,4.50
2023-05-19T23:53:26.944Z,4.88
2023-05-19T23:55:53.647Z,4.32
2023-05-19T23:58:20.628Z,5.13
